createdAt,value
2018-09-23T00:00:27.979Z,14.80
2018-09-23T00:05:22.841Z,15.10
2018-09-23T00:07:50.450Z,15.00
2018-09-23T00:10:17.936Z,15.10
2018-09-23T00:12:45.457Z,15.40
2018-09-23T00:15:13.056Z,14.90
2018-09-23T00:17:40.573Z,15.20
2018-09-23T00:20:08.207Z,14.90
2018-09-23T00:22:35.710Z,15.00
2018-09-23T00:25:03.300Z,14.70
2018-09-23T00:27:30.898Z,14.70
2018-09-23T00:32:25.830Z,14.50
2018-09-23T00:34:53.372Z,14.50
2018-09-23T00:37:21.609Z,14.50
2018-09-23T00:39:49.153Z,14.40
2018-09-23T00:42:16.682Z,14.40
2018-09-23T00:44:44.228Z,14.50
2018-09-23T00:47:11.787Z,14.60
2018-09-23T00:49:39.252Z,14.60
2018-09-23T00:52:06.725Z,14.50
2018-09-23T01:01:56.512Z,14.50
2018-09-23T01:04:24.009Z,14.60
2018-09-23T01:06:51.524Z,14.90
2018-09-23T01:09:19.046Z,14.80
2018-09-23T01:11:46.528Z,15.00
2018-09-23T01:14:14.230Z,14.90
2018-09-23T01:16:41.724Z,14.70
2018-09-23T01:19:09.284Z,14.70
2018-09-23T01:21:36.820Z,14.50
2018-09-23T01:24:04.468Z,14.70
2018-09-23T01:26:32.000Z,14.70
2018-09-23T01:31:26.987Z,14.70
2018-09-23T01:33:54.502Z,14.70
2018-09-23T01:36:22.061Z,14.90
2018-09-23T01:38:49.601Z,14.80
2018-09-23T01:41:17.085Z,14.60
2018-09-23T01:43:44.669Z,14.70
2018-09-23T01:46:12.357Z,14.40
2018-09-23T01:48:39.896Z,14.10
2018-09-23T01:51:07.401Z,14.90
2018-09-23T01:53:34.881Z,14.60
2018-09-23T01:56:02.439Z,14.20
2018-09-23T01:58:29.947Z,14.40
2018-09-23T02:00:57.455Z,14.10
2018-09-23T02:05:52.356Z,14.10
2018-09-23T02:08:19.874Z,14.00
2018-09-23T02:10:47.376Z,14.40
2018-09-23T02:13:14.919Z,13.80
2018-09-23T02:15:42.508Z,14.30
2018-09-23T02:18:10.065Z,14.20
2018-09-23T02:20:37.582Z,14.00
2018-09-23T02:25:32.840Z,13.60
2018-09-23T02:28:00.373Z,14.00
2018-09-23T02:30:28.073Z,13.60
2018-09-23T02:32:55.577Z,13.80
2018-09-23T02:37:51.881Z,13.80
2018-09-23T02:42:46.889Z,13.80
2018-09-23T02:45:14.414Z,13.80
2018-09-23T02:47:41.949Z,13.90
2018-09-23T02:50:09.391Z,13.90
2018-09-23T02:52:37.191Z,14.00
2018-09-23T02:55:04.796Z,14.20
2018-09-23T02:57:32.328Z,13.80
2018-09-23T02:59:59.789Z,13.80
2018-09-23T03:02:27.287Z,13.70
2018-09-23T03:07:22.400Z,13.80
2018-09-23T03:09:49.906Z,14.20
2018-09-23T03:12:17.467Z,13.60
2018-09-23T03:14:44.891Z,13.70
2018-09-23T03:17:12.322Z,14.00
2018-09-23T03:19:39.765Z,13.90
2018-09-23T03:22:07.203Z,13.90
2018-09-23T03:24:34.761Z,13.60
2018-09-23T03:36:51.884Z,14.10
2018-09-23T03:39:19.360Z,13.90
2018-09-23T03:41:46.867Z,13.80
2018-09-23T03:44:14.366Z,14.00
2018-09-23T03:46:41.931Z,14.00
2018-09-23T03:49:09.428Z,13.90
2018-09-23T03:51:36.891Z,13.90
2018-09-23T03:54:04.469Z,13.90
2018-09-23T03:56:32.046Z,13.90
2018-09-23T03:58:59.597Z,13.90
2018-09-23T04:01:27.094Z,13.70
2018-09-23T04:03:54.663Z,13.80
2018-09-23T04:06:22.106Z,13.90
2018-09-23T04:08:49.583Z,13.90
2018-09-23T04:11:17.080Z,13.90
2018-09-23T04:13:44.539Z,14.40
2018-09-23T04:16:12.014Z,14.00
2018-09-23T04:18:39.434Z,14.40
2018-09-23T04:21:06.874Z,14.20
2018-09-23T04:23:34.378Z,14.20
2018-09-23T04:26:01.963Z,14.10
2018-09-23T04:28:29.551Z,14.10
2018-09-23T04:30:57.074Z,14.20
2018-09-23T04:33:24.536Z,14.10
2018-09-23T04:35:51.984Z,14.00
2018-09-23T04:38:19.503Z,13.90
2018-09-23T04:40:47.031Z,13.80
2018-09-23T04:43:14.516Z,13.80
2018-09-23T04:45:41.952Z,13.90
2018-09-23T04:48:09.456Z,14.30
2018-09-23T04:53:04.434Z,14.00
2018-09-23T04:55:31.990Z,14.50
2018-09-23T05:00:27.007Z,13.80
2018-09-23T05:02:54.479Z,13.80
2018-09-23T05:07:49.496Z,13.80
2018-09-23T05:10:17.044Z,13.80
2018-09-23T05:15:12.265Z,13.80
2018-09-23T05:17:39.832Z,13.80
2018-09-23T05:20:07.316Z,13.60
2018-09-23T05:22:34.832Z,14.10
2018-09-23T05:25:02.323Z,13.90
2018-09-23T05:27:29.824Z,13.80
2018-09-23T05:29:57.313Z,13.80
2018-09-23T05:32:24.885Z,13.90
2018-09-23T05:34:52.393Z,13.80
2018-09-23T05:37:19.873Z,13.80
2018-09-23T05:39:47.341Z,13.80
2018-09-23T05:44:42.385Z,13.90
2018-09-23T05:47:09.862Z,14.00
2018-09-23T05:49:37.737Z,13.90
2018-09-23T05:54:32.858Z,14.00
2018-09-23T05:57:00.361Z,14.30
2018-09-23T05:59:27.864Z,14.40
2018-09-23T06:01:55.453Z,14.10
2018-09-23T06:04:23.006Z,14.00
2018-09-23T06:06:50.542Z,14.20
2018-09-23T06:09:18.035Z,14.50
2018-09-23T06:11:45.552Z,14.40
2018-09-23T06:14:13.013Z,14.10
2018-09-23T06:16:40.514Z,14.20
2018-09-23T06:19:08.036Z,14.20
2018-09-23T06:21:35.585Z,14.30
2018-09-23T06:24:03.225Z,14.00
2018-09-23T06:26:30.741Z,13.70
2018-09-23T06:28:58.199Z,14.00
2018-09-23T06:31:25.664Z,13.80
2018-09-23T06:33:53.222Z,14.00
2018-09-23T06:36:20.777Z,14.20
2018-09-23T06:38:48.681Z,13.90
2018-09-23T06:41:16.187Z,14.30
2018-09-23T06:43:43.693Z,14.30
2018-09-23T06:46:11.230Z,14.30
2018-09-23T06:48:38.763Z,14.50
2018-09-23T06:51:06.381Z,14.40
2018-09-23T06:53:34.155Z,13.90
2018-09-23T06:56:01.641Z,14.30
2018-09-23T06:58:29.231Z,14.30
2018-09-23T07:00:56.678Z,14.00
2018-09-23T07:03:24.203Z,14.30
2018-09-23T07:05:51.719Z,14.30
2018-09-23T07:08:19.174Z,14.20
2018-09-23T07:10:46.631Z,14.20
2018-09-23T07:13:14.135Z,14.20
2018-09-23T07:15:41.645Z,14.10
2018-09-23T07:18:09.817Z,14.10
2018-09-23T07:20:37.419Z,14.40
2018-09-23T07:23:04.927Z,14.30
2018-09-23T07:25:32.404Z,14.50
2018-09-23T07:27:59.952Z,14.50
2018-09-23T07:30:27.466Z,14.50
2018-09-23T07:32:54.951Z,14.40
2018-09-23T07:35:23.327Z,14.30
2018-09-23T07:37:50.828Z,14.40
2018-09-23T07:40:18.400Z,14.40
2018-09-23T07:42:45.905Z,14.40
2018-09-23T07:45:13.392Z,14.30
2018-09-23T07:47:40.930Z,14.40
2018-09-23T07:50:08.501Z,14.30
2018-09-23T07:52:35.990Z,14.40
2018-09-23T07:55:03.624Z,14.50
2018-09-23T07:57:32.287Z,14.60
2018-09-23T07:59:59.816Z,14.40
2018-09-23T08:02:27.342Z,14.30
2018-09-23T08:04:56.000Z,14.50
2018-09-23T08:09:51.043Z,14.70
2018-09-23T08:12:18.612Z,14.70
2018-09-23T08:14:46.692Z,14.70
2018-09-23T08:17:13.795Z,14.70
2018-09-23T08:19:41.437Z,14.70
2018-09-23T08:22:08.798Z,14.70
2018-09-23T08:24:36.317Z,14.80
2018-09-23T08:27:03.858Z,14.70
2018-09-23T08:29:31.393Z,14.80
2018-09-23T08:31:58.877Z,14.90
2018-09-23T08:34:26.373Z,14.90
2018-09-23T08:36:53.946Z,14.80
2018-09-23T08:41:48.905Z,14.80
2018-09-23T08:44:16.466Z,14.80
2018-09-23T08:46:44.009Z,14.90
2018-09-23T08:49:11.565Z,15.00
2018-09-23T08:51:39.199Z,14.90
2018-09-23T08:54:06.668Z,15.00
2018-09-23T08:56:34.183Z,15.00
2018-09-23T08:59:01.742Z,15.10
2018-09-23T09:01:29.230Z,15.10
2018-09-23T09:03:56.742Z,15.00
2018-09-23T09:06:25.192Z,15.00
2018-09-23T09:08:52.741Z,15.00
2018-09-23T09:11:20.510Z,15.10
2018-09-23T09:13:48.032Z,15.10
2018-09-23T09:16:15.616Z,15.10
2018-09-23T09:18:43.493Z,15.20
2018-09-23T09:21:10.816Z,15.20
2018-09-23T09:23:38.332Z,15.20
2018-09-23T09:26:05.952Z,15.20
2018-09-23T09:28:33.471Z,15.20
2018-09-23T09:31:00.958Z,15.20
2018-09-23T09:33:28.564Z,15.20
2018-09-23T09:35:56.088Z,15.20
2018-09-23T09:38:23.759Z,15.30
2018-09-23T09:40:51.355Z,15.30
2018-09-23T09:43:18.858Z,15.30
2018-09-23T09:45:46.443Z,15.40
2018-09-23T09:48:13.891Z,15.50
2018-09-23T09:50:41.465Z,15.50
2018-09-23T09:53:09.011Z,15.50
2018-09-23T09:55:36.582Z,15.50
2018-09-23T09:58:04.213Z,15.60
2018-09-23T10:00:33.478Z,15.50
2018-09-23T10:03:02.004Z,15.40
2018-09-23T10:05:29.683Z,15.40
2018-09-23T10:07:57.505Z,15.40
2018-09-23T10:10:25.932Z,15.40
2018-09-23T10:12:53.985Z,15.40
2018-09-23T10:15:21.463Z,15.50
2018-09-23T10:17:50.056Z,15.50
2018-09-23T10:21:42.412Z,15.40
2018-09-23T10:24:09.965Z,15.40
2018-09-23T10:26:37.498Z,15.50
2018-09-23T10:29:05.338Z,15.50
2018-09-23T10:31:32.947Z,15.60
2018-09-23T10:34:00.409Z,15.50
2018-09-23T10:36:28.014Z,15.60
2018-09-23T10:38:55.612Z,15.70
2018-09-23T10:41:27.148Z,15.70
2018-09-23T10:43:54.985Z,15.80
2018-09-23T10:46:22.489Z,15.60
2018-09-23T10:48:50.401Z,15.80
2018-09-23T10:56:14.459Z,15.80
2018-09-23T10:58:42.306Z,15.80
2018-09-23T11:01:09.788Z,15.80
2018-09-23T11:03:37.375Z,15.80
2018-09-23T11:06:04.893Z,15.80
2018-09-23T11:08:32.777Z,15.70
2018-09-23T11:11:00.258Z,15.80
2018-09-23T11:15:55.440Z,15.80
2018-09-23T11:18:23.370Z,15.90
2018-09-23T11:20:51.133Z,15.90
2018-09-23T11:23:18.701Z,15.90
2018-09-23T11:25:46.193Z,15.90
2018-09-23T11:30:41.501Z,16.00
2018-09-23T11:33:09.701Z,16.20
2018-09-23T11:35:37.592Z,16.20
2018-09-23T11:38:05.261Z,16.10
2018-09-23T11:40:32.854Z,16.30
2018-09-23T11:43:00.377Z,16.70
2018-09-23T11:45:27.884Z,17.00
2018-09-23T11:47:55.556Z,17.10
2018-09-23T11:52:51.081Z,17.30
2018-09-23T11:55:18.874Z,17.30
2018-09-23T11:57:46.709Z,17.30
2018-09-23T12:00:14.303Z,17.30
2018-09-23T12:02:42.992Z,17.30
2018-09-23T12:05:11.166Z,17.30
2018-09-23T12:07:39.087Z,17.40
2018-09-23T12:10:09.116Z,17.30
2018-09-23T12:12:36.780Z,17.30
2018-09-23T12:15:04.383Z,17.30
2018-09-23T12:17:31.992Z,17.30
2018-09-23T12:19:59.545Z,17.40
2018-09-23T12:22:27.099Z,17.40
2018-09-23T12:24:54.743Z,17.40
2018-09-23T12:27:22.460Z,17.60
2018-09-23T12:29:50.206Z,17.60
2018-09-23T12:32:17.710Z,17.70
2018-09-23T12:34:45.256Z,17.80
2018-09-23T12:37:12.829Z,18.00
2018-09-23T12:39:40.362Z,18.40
2018-09-23T12:42:07.952Z,18.50
2018-09-23T12:44:35.510Z,18.60
2018-09-23T12:47:03.148Z,18.70
2018-09-23T12:49:30.734Z,18.80
2018-09-23T12:51:58.589Z,18.80
2018-09-23T12:54:26.206Z,19.00
2018-09-23T12:56:53.908Z,19.20
2018-09-23T13:01:49.250Z,19.30
2018-09-23T13:05:41.575Z,19.30
2018-09-23T13:08:09.190Z,19.30
2018-09-23T13:10:36.794Z,19.30
2018-09-23T13:13:04.409Z,19.30
2018-09-23T13:15:31.965Z,19.30
2018-09-23T13:18:00.174Z,19.40
2018-09-23T13:20:27.612Z,19.30
2018-09-23T13:22:55.181Z,19.50
2018-09-23T13:25:22.990Z,19.60
2018-09-23T13:27:50.961Z,19.70
2018-09-23T13:30:18.639Z,19.70
2018-09-23T13:32:46.186Z,19.70
2018-09-23T13:35:13.778Z,19.70
2018-09-23T13:37:41.650Z,19.70
2018-09-23T13:40:09.291Z,19.70
2018-09-23T13:42:36.908Z,19.70
2018-09-23T13:45:04.576Z,19.70
2018-09-23T13:47:32.886Z,19.70
2018-09-23T13:50:00.526Z,19.80
2018-09-23T13:52:28.127Z,19.70
2018-09-23T13:54:56.352Z,19.70
2018-09-23T13:57:23.935Z,19.70
2018-09-23T13:59:51.660Z,19.70
2018-09-23T14:02:19.249Z,19.70
2018-09-23T14:04:47.350Z,19.70
2018-09-23T14:07:14.978Z,19.70
2018-09-23T14:09:42.569Z,19.70
2018-09-23T14:14:38.732Z,19.50
2018-09-23T14:17:06.453Z,19.50
2018-09-23T14:19:34.016Z,19.40
2018-09-23T14:22:01.801Z,19.00
2018-09-23T14:24:29.342Z,18.80
2018-09-23T14:26:56.980Z,18.60
2018-09-23T14:29:24.497Z,18.20
2018-09-23T14:31:52.137Z,17.90
2018-09-23T14:34:19.698Z,17.60
2018-09-23T14:36:47.216Z,17.30
2018-09-23T14:39:14.821Z,17.20
2018-09-23T14:41:42.409Z,16.90
2018-09-23T14:44:10.048Z,16.90
2018-09-23T14:46:37.547Z,16.90
2018-09-23T14:49:05.221Z,16.80
2018-09-23T14:51:32.728Z,16.70
2018-09-23T14:54:00.268Z,16.80
2018-09-23T14:56:27.799Z,16.90
2018-09-23T14:58:55.459Z,16.80
2018-09-23T15:01:24.125Z,16.80
2018-09-23T15:03:51.796Z,16.70
2018-09-23T15:06:22.264Z,16.70
2018-09-23T15:08:50.101Z,16.70
2018-09-23T15:11:21.503Z,16.80
2018-09-23T15:16:25.609Z,16.70
2018-09-23T15:18:53.990Z,16.80
2018-09-23T15:21:21.561Z,16.80
2018-09-23T15:23:49.237Z,16.90
2018-09-23T15:26:16.784Z,16.80
2018-09-23T15:28:45.477Z,16.80
2018-09-23T15:31:13.072Z,16.80
2018-09-23T15:33:40.745Z,16.80
2018-09-23T15:36:09.248Z,16.60
2018-09-23T15:38:37.160Z,16.40
2018-09-23T15:41:05.091Z,16.40
2018-09-23T15:43:32.680Z,16.30
2018-09-23T15:46:00.861Z,16.30
2018-09-23T15:48:28.452Z,16.30
2018-09-23T15:50:56.019Z,16.10
2018-09-23T15:53:23.619Z,16.00
2018-09-23T15:55:51.735Z,15.90
2018-09-23T15:58:19.377Z,15.90
2018-09-23T16:00:46.980Z,15.80
2018-09-23T16:03:14.570Z,15.60
2018-09-23T16:05:42.192Z,15.60
2018-09-23T16:08:09.810Z,15.60
2018-09-23T16:10:37.326Z,15.60
2018-09-23T16:13:04.995Z,15.50
2018-09-23T16:15:32.607Z,15.50
2018-09-23T16:18:00.187Z,15.30
2018-09-23T16:20:27.915Z,15.40
2018-09-23T16:22:55.690Z,15.30
2018-09-23T16:27:50.689Z,15.20
2018-09-23T16:30:18.322Z,15.20
2018-09-23T16:32:45.937Z,15.20
2018-09-23T16:35:13.606Z,15.30
2018-09-23T16:37:41.212Z,15.20
2018-09-23T16:40:08.721Z,15.20
2018-09-23T16:42:36.336Z,15.20
2018-09-23T16:45:03.900Z,15.10
2018-09-23T16:47:31.524Z,15.10
2018-09-23T16:49:59.080Z,14.90
2018-09-23T16:52:26.714Z,14.90
2018-09-23T16:54:54.329Z,14.90
2018-09-23T16:57:21.842Z,15.00
2018-09-23T16:59:49.427Z,14.90
2018-09-23T17:02:16.960Z,15.00
2018-09-23T17:04:44.509Z,15.00
2018-09-23T17:07:12.108Z,15.00
2018-09-23T17:09:39.735Z,14.90
2018-09-23T17:12:07.467Z,14.80
2018-09-23T17:14:35.099Z,14.80
2018-09-23T17:17:02.646Z,14.90
2018-09-23T17:19:30.250Z,14.80
2018-09-23T17:21:57.878Z,14.70
2018-09-23T17:24:25.429Z,14.70
2018-09-23T17:26:53.002Z,14.60
2018-09-23T17:29:20.583Z,14.60
2018-09-23T17:31:48.149Z,14.50
2018-09-23T17:34:15.683Z,14.50
2018-09-23T17:36:44.025Z,14.60
2018-09-23T17:39:11.650Z,14.60
2018-09-23T17:41:39.745Z,14.70
2018-09-23T17:44:07.407Z,14.70
2018-09-23T17:46:35.312Z,14.80
2018-09-23T17:49:02.963Z,14.80
2018-09-23T17:51:30.603Z,14.70
2018-09-23T17:53:58.314Z,14.70
2018-09-23T17:56:25.954Z,14.70
2018-09-23T18:01:20.902Z,14.60
2018-09-23T18:03:48.466Z,14.60
2018-09-23T18:11:11.416Z,14.70
2018-09-23T18:13:39.051Z,14.60
2018-09-23T18:18:34.205Z,14.40
2018-09-23T18:23:29.361Z,14.50
2018-09-23T18:28:24.321Z,14.50
2018-09-23T18:33:19.385Z,14.30
2018-09-23T18:35:46.986Z,14.30
2018-09-23T18:38:14.553Z,14.40
2018-09-23T18:40:42.737Z,14.30
2018-09-23T18:43:10.284Z,14.30
2018-09-23T18:48:05.647Z,14.20
2018-09-23T18:50:33.496Z,14.20
2018-09-23T18:53:07.040Z,14.20
2018-09-23T18:55:42.079Z,14.10
2018-09-23T18:58:09.660Z,14.10
2018-09-23T19:03:05.364Z,14.10
2018-09-23T19:05:32.977Z,14.00
2018-09-23T19:08:00.964Z,14.00
2018-09-23T19:10:29.241Z,13.80
2018-09-23T19:15:30.954Z,13.70
2018-09-23T19:17:58.395Z,13.70
2018-09-23T19:20:26.045Z,13.70
2018-09-23T19:22:59.758Z,13.70
2018-09-23T19:25:27.321Z,13.60
2018-09-23T19:27:55.027Z,13.60
2018-09-23T19:30:22.764Z,13.70
2018-09-23T19:32:50.779Z,13.50
2018-09-23T19:35:18.360Z,13.50
2018-09-23T19:37:47.692Z,13.30
2018-09-23T19:42:43.398Z,13.30
2018-09-23T19:52:33.627Z,13.10
2018-09-23T19:59:57.653Z,13.00
2018-09-23T20:02:25.402Z,12.90
2018-09-23T20:04:53.692Z,12.70
2018-09-23T20:12:16.698Z,12.40
2018-09-23T20:14:44.347Z,12.40
2018-09-23T20:19:46.243Z,12.50
2018-09-23T20:29:36.859Z,12.90
2018-09-23T20:32:05.092Z,13.10
2018-09-23T20:39:32.068Z,12.60
2018-09-23T20:42:00.174Z,12.80
2018-09-23T20:49:24.348Z,12.80
2018-09-23T20:51:52.319Z,12.80
2018-09-23T20:54:19.892Z,12.80
2018-09-23T21:01:43.782Z,12.70
2018-09-23T21:09:08.259Z,12.60
2018-09-23T21:11:35.844Z,12.80
2018-09-23T21:14:03.508Z,12.70
2018-09-23T21:16:31.129Z,12.70
2018-09-23T21:18:59.542Z,12.60
2018-09-23T21:21:27.117Z,12.40
2018-09-23T21:26:22.189Z,12.20
2018-09-23T21:31:17.672Z,12.30
2018-09-23T21:38:40.110Z,12.50
2018-09-23T21:43:35.162Z,12.60
2018-09-23T21:48:30.197Z,12.60
2018-09-23T21:50:57.809Z,12.80
2018-09-23T21:55:52.789Z,12.70
2018-09-23T21:58:20.343Z,12.40
2018-09-23T22:03:15.396Z,12.30
2018-09-23T22:05:42.986Z,12.40
2018-09-23T22:08:11.246Z,12.10
2018-09-23T22:10:38.821Z,12.70
2018-09-23T22:13:06.635Z,12.50
2018-09-23T22:15:34.142Z,12.30
2018-09-23T22:18:01.648Z,12.50
2018-09-23T22:20:29.210Z,12.60
2018-09-23T22:22:56.759Z,13.20
2018-09-23T22:27:52.635Z,13.00
2018-09-23T22:32:48.403Z,12.70
2018-09-23T22:37:43.398Z,12.80
2018-09-23T22:40:10.964Z,12.70
2018-09-23T22:42:38.731Z,13.30
2018-09-23T22:45:06.676Z,12.50
2018-09-23T22:50:02.012Z,12.30
2018-09-23T22:52:29.632Z,12.60
2018-09-23T22:54:57.161Z,12.50
2018-09-23T22:57:24.721Z,12.30
2018-09-23T22:59:52.290Z,12.50
2018-09-23T23:12:09.982Z,12.20
2018-09-23T23:14:37.501Z,12.50
2018-09-23T23:17:05.132Z,12.50
2018-09-23T23:19:32.616Z,12.20
2018-09-23T23:22:00.122Z,12.80
2018-09-23T23:26:55.119Z,12.50
2018-09-23T23:29:22.648Z,12.20
2018-09-23T23:36:44.960Z,12.30
2018-09-23T23:39:12.520Z,12.20
2018-09-23T23:44:07.836Z,12.10
2018-09-23T23:51:30.503Z,12.30
2018-09-23T23:56:25.393Z,12.40
